createdAt,value
2022-08-30T00:02:25.222Z,100832.69
2022-08-30T00:04:55.160Z,100831.19
2022-08-30T00:07:21.939Z,100836.34
2022-08-30T00:09:48.415Z,100835.16
2022-08-30T00:12:15.276Z,100837.34
2022-08-30T00:14:41.626Z,100839.38
2022-08-30T00:17:08.037Z,100833.47
2022-08-30T00:19:34.428Z,100830.41
2022-08-30T00:22:00.766Z,100838.16
2022-08-30T00:24:27.429Z,100828.22
2022-08-30T00:26:53.789Z,100835.03
2022-08-30T00:29:20.535Z,100843.72
2022-08-30T00:31:46.906Z,100842.19
2022-08-30T00:34:13.557Z,100840.53
2022-08-30T00:36:39.951Z,100842.41
2022-08-30T00:39:06.350Z,100840.91
2022-08-30T00:41:33.058Z,100832.94
2022-08-30T00:44:00.913Z,100838.19
2022-08-30T00:46:27.591Z,100829.53
2022-08-30T00:48:55.711Z,100844.09
2022-08-30T00:51:24.191Z,100842.09
2022-08-30T00:53:56.644Z,100838.19
2022-08-30T00:56:25.184Z,100846.34
2022-08-30T00:58:55.706Z,100850.56
2022-08-30T01:01:22.318Z,100856.84
2022-08-30T01:03:49.120Z,100846.34
2022-08-30T01:06:16.566Z,100851.41
2022-08-30T01:08:47.437Z,100844.84
2022-08-30T01:11:18.814Z,100850.59
2022-08-30T01:13:47.142Z,100851.63
2022-08-30T01:16:14.583Z,100848.59
2022-08-30T01:18:41.275Z,100858.09
2022-08-30T01:21:07.705Z,100853.34
2022-08-30T01:23:37.694Z,100848.97
2022-08-30T01:26:06.009Z,100845.41
2022-08-30T01:28:33.558Z,100851.69
2022-08-30T01:30:59.969Z,100852.69
2022-08-30T01:33:26.426Z,100853.94
2022-08-30T01:36:13.862Z,100848.50
2022-08-30T01:38:45.783Z,100836.66
2022-08-30T01:41:22.857Z,100837.84
2022-08-30T01:43:51.486Z,100839.88
2022-08-30T01:46:20.330Z,100842.44
2022-08-30T01:48:52.001Z,100839.88
2022-08-30T01:51:22.795Z,100838.53
2022-08-30T01:53:49.180Z,100846.84
2022-08-30T01:56:16.059Z,100841.09
2022-08-30T01:58:43.534Z,100843.13
2022-08-30T02:01:13.749Z,100840.41
2022-08-30T02:03:42.890Z,100821.81
2022-08-30T02:06:13.077Z,100845.34
2022-08-30T02:08:40.261Z,100841.47
2022-08-30T02:11:07.587Z,100841.63
2022-08-30T02:13:34.064Z,100848.41
2022-08-30T02:16:00.436Z,100840.81
2022-08-30T02:18:27.605Z,100838.41
2022-08-30T02:20:54.026Z,100836.72
2022-08-30T02:23:20.646Z,100844.19
2022-08-30T02:25:47.031Z,100846.22
2022-08-30T02:28:15.606Z,100838.75
2022-08-30T02:30:45.098Z,100838.59
2022-08-30T02:33:11.615Z,100825.72
2022-08-30T02:35:38.011Z,100836.22
2022-08-30T02:38:05.516Z,100834.16
2022-08-30T02:40:32.308Z,100829.09
2022-08-30T02:42:58.719Z,100830.97
2022-08-30T02:45:25.757Z,100824.16
2022-08-30T02:47:52.476Z,100814.88
2022-08-30T02:50:19.669Z,100810.13
2022-08-30T02:52:48.321Z,100803.50
2022-08-30T02:55:15.874Z,100804.34
2022-08-30T02:57:43.487Z,100802.31
2022-08-30T03:00:13.016Z,100803.00
2022-08-30T03:02:40.584Z,100807.06
2022-08-30T03:05:08.943Z,100817.59
2022-08-30T03:07:35.380Z,100810.63
2022-08-30T03:10:02.005Z,100807.06
2022-08-30T03:12:28.552Z,100813.84
2022-08-30T03:14:54.969Z,100813.50
2022-08-30T03:17:21.362Z,100816.88
2022-08-30T03:19:47.834Z,100805.72
2022-08-30T03:22:14.264Z,100804.03
2022-08-30T03:24:40.807Z,100804.53
2022-08-30T03:27:08.050Z,100809.44
2022-08-30T03:29:34.851Z,100805.72
2022-08-30T03:32:01.278Z,100812.34
2022-08-30T03:34:27.927Z,100811.13
2022-08-30T03:36:55.457Z,100821.97
2022-08-30T03:39:23.247Z,100816.88
2022-08-30T03:41:50.730Z,100822.47
2022-08-30T03:44:18.498Z,100827.03
2022-08-30T03:46:45.119Z,100814.19
2022-08-30T03:49:11.536Z,100815.72
2022-08-30T03:51:37.899Z,100808.78
2022-08-30T03:54:04.500Z,100816.19
2022-08-30T03:56:31.072Z,100808.59
2022-08-30T03:58:57.452Z,100814.50
2022-08-30T04:01:24.424Z,100811.13
2022-08-30T04:03:50.845Z,100812.47
2022-08-30T04:06:17.256Z,100806.06
2022-08-30T04:08:45.874Z,100810.47
2022-08-30T04:11:14.826Z,100815.69
2022-08-30T04:13:41.204Z,100811.47
2022-08-30T04:16:07.579Z,100811.13
2022-08-30T04:18:34.698Z,100806.38
2022-08-30T04:21:01.800Z,100807.06
2022-08-30T04:23:28.501Z,100814.00
2022-08-30T04:25:56.023Z,100808.41
2022-08-30T04:28:23.304Z,100819.25
2022-08-30T04:30:49.691Z,100811.97
2022-08-30T04:33:17.120Z,100820.75
2022-08-30T04:35:45.900Z,100821.25
2022-08-30T04:38:13.666Z,100820.72
2022-08-30T04:40:45.199Z,100825.63
2022-08-30T04:43:13.005Z,100833.75
2022-08-30T04:45:40.385Z,100832.91
2022-08-30T04:48:07.258Z,100832.53
2022-08-30T04:50:33.797Z,100829.47
2022-08-30T04:53:00.163Z,100821.38
2022-08-30T04:55:26.574Z,100810.72
2022-08-30T04:57:53.108Z,100824.28
2022-08-30T05:00:23.103Z,100815.41
2022-08-30T05:02:49.645Z,100828.97
2022-08-30T05:05:36.290Z,100837.81
2022-08-30T05:08:02.928Z,100838.78
2022-08-30T05:10:29.641Z,100837.81
2022-08-30T05:12:56.440Z,100840.16
2022-08-30T05:15:23.051Z,100843.56
2022-08-30T05:17:49.558Z,100854.53
2022-08-30T05:20:16.278Z,100854.88
2022-08-30T05:22:49.917Z,100858.94
2022-08-30T05:25:26.845Z,100860.63
2022-08-30T05:27:53.673Z,100851.50
2022-08-30T05:30:21.092Z,100848.13
2022-08-30T05:32:47.777Z,100868.28
2022-08-30T05:35:15.956Z,100868.44
2022-08-30T05:37:42.876Z,100874.59
2022-08-30T05:40:11.492Z,100876.13
2022-08-30T05:42:38.792Z,100869.50
2022-08-30T05:45:06.321Z,100866.66
2022-08-30T05:47:32.782Z,100864.13
2022-08-30T05:49:59.413Z,100866.34
2022-08-30T05:52:25.969Z,100871.75
2022-08-30T05:54:55.677Z,100874.16
2022-08-30T05:57:22.648Z,100873.78
2022-08-30T05:59:49.003Z,100862.50
2022-08-30T06:02:15.471Z,100859.25
2022-08-30T06:04:42.792Z,100859.44
2022-08-30T06:07:11.713Z,100852.81
2022-08-30T06:09:40.953Z,100857.06
2022-08-30T06:12:07.584Z,100865.84
2022-08-30T06:14:34.283Z,100865.66
2022-08-30T06:17:00.708Z,100868.69
2022-08-30T06:19:27.229Z,100858.78
2022-08-30T06:21:53.616Z,100866.06
2022-08-30T06:24:27.827Z,100867.03
2022-08-30T06:27:02.777Z,100858.38
2022-08-30T06:29:29.300Z,100862.59
2022-08-30T06:31:57.529Z,100853.63
2022-08-30T06:34:23.894Z,100860.88
2022-08-30T06:36:50.277Z,100858.06
2022-08-30T06:39:16.671Z,100859.69
2022-08-30T06:41:43.072Z,100861.22
2022-08-30T06:44:09.568Z,100865.69
2022-08-30T06:46:38.484Z,100869.81
2022-08-30T06:49:06.672Z,100867.50
2022-08-30T06:51:37.711Z,100871.78
2022-08-30T06:54:09.230Z,100873.66
2022-08-30T06:56:40.250Z,100868.47
2022-08-30T06:59:09.749Z,100871.94
2022-08-30T07:01:36.139Z,100870.84
2022-08-30T07:06:53.436Z,100880.81
2022-08-30T07:09:19.884Z,100878.94
2022-08-30T07:11:50.566Z,100884.47
2022-08-30T07:14:17.110Z,100889.66
2022-08-30T07:16:44.146Z,100889.75
2022-08-30T07:19:13.519Z,100882.78
2022-08-30T07:21:48.840Z,100882.44
2022-08-30T07:24:16.306Z,100884.25
2022-08-30T07:26:47.158Z,100888.03
2022-08-30T07:29:13.532Z,100878.81
2022-08-30T07:31:40.188Z,100888.97
2022-08-30T07:34:07.374Z,100882.34
2022-08-30T07:36:35.237Z,100889.34
2022-08-30T07:39:01.800Z,100882.53
2022-08-30T07:41:32.160Z,100878.28
2022-08-30T07:43:58.790Z,100874.09
2022-08-30T07:46:25.638Z,100883.00
2022-08-30T07:48:54.160Z,100879.34
2022-08-30T07:51:24.667Z,100882.59
2022-08-30T07:53:51.300Z,100886.75
2022-08-30T07:56:17.699Z,100879.41
2022-08-30T07:58:44.127Z,100877.56
2022-08-30T08:01:12.234Z,100880.59
2022-08-30T08:03:40.632Z,100875.59
2022-08-30T08:06:09.971Z,100873.09
2022-08-30T08:08:37.081Z,100877.31
2022-08-30T08:11:16.345Z,100881.84
2022-08-30T08:13:50.646Z,100886.94
2022-08-30T08:16:23.134Z,100878.31
2022-08-30T08:18:49.579Z,100886.81
2022-08-30T08:21:15.977Z,100884.47
2022-08-30T08:23:42.459Z,100888.97
2022-08-30T08:26:08.842Z,100886.22
2022-08-30T08:28:35.560Z,100888.53
2022-08-30T08:31:01.996Z,100889.38
2022-08-30T08:33:28.390Z,100882.81
2022-08-30T08:35:54.844Z,100883.66
2022-08-30T08:38:21.203Z,100886.22
2022-08-30T08:41:05.302Z,100882.00
2022-08-30T08:43:35.746Z,100886.19
2022-08-30T08:46:38.317Z,100879.25
2022-08-30T08:49:07.083Z,100881.34
2022-08-30T08:51:55.035Z,100869.75
2022-08-30T08:54:27.470Z,100881.69
2022-08-30T08:56:54.248Z,100881.25
2022-08-30T08:59:20.788Z,100882.09
2022-08-30T09:01:50.620Z,100872.16
2022-08-30T09:04:30.133Z,100877.81
2022-08-30T09:07:05.376Z,100864.03
2022-08-30T09:09:35.732Z,100863.94
2022-08-30T09:12:03.430Z,100865.47
2022-08-30T09:14:34.928Z,100862.72
2022-08-30T09:17:08.993Z,100860.97
2022-08-30T09:20:05.283Z,100868.50
2022-08-30T09:22:39.940Z,100866.75
2022-08-30T09:25:22.121Z,100862.63
2022-08-30T09:27:51.819Z,100866.13
2022-08-30T09:30:27.713Z,100863.00
2022-08-30T09:33:07.578Z,100865.22
2022-08-30T09:35:44.325Z,100861.72
2022-08-30T09:38:17.638Z,100849.31
2022-08-30T09:40:50.550Z,100853.88
2022-08-30T09:43:17.277Z,100848.78
2022-08-30T09:45:47.508Z,100846.22
2022-08-30T09:48:33.230Z,100846.97
2022-08-30T09:51:20.493Z,100838.50
2022-08-30T09:54:17.063Z,100844.03
2022-08-30T09:56:56.701Z,100838.38
2022-08-30T09:59:41.828Z,100833.75
2022-08-30T10:02:26.203Z,100828.63
2022-08-30T10:05:11.982Z,100836.75
2022-08-30T10:08:20.512Z,100831.44
2022-08-30T10:11:00.923Z,100813.09
2022-08-30T10:13:36.332Z,100828.19
2022-08-30T10:16:11.859Z,100821.66
2022-08-30T10:18:53.409Z,100817.66
2022-08-30T10:21:34.470Z,100811.00
2022-08-30T10:24:20.978Z,100804.84
2022-08-30T10:27:02.284Z,100810.47
2022-08-30T10:29:33.680Z,100818.53
2022-08-30T10:32:23.842Z,100813.47
2022-08-30T10:34:57.753Z,100804.75
2022-08-30T10:37:31.601Z,100799.41
2022-08-30T10:40:46.520Z,100809.97
2022-08-30T10:43:22.320Z,100794.56
2022-08-30T10:45:50.958Z,100797.56
2022-08-30T10:48:52.579Z,100800.41
2022-08-30T10:51:35.790Z,100795.13
2022-08-30T10:54:07.737Z,100796.75
2022-08-30T10:56:40.428Z,100783.03
2022-08-30T10:59:07.082Z,100790.38
2022-08-30T11:02:03.683Z,100782.41
2022-08-30T11:04:34.228Z,100800.91
2022-08-30T11:07:20.506Z,100790.97
2022-08-30T11:10:04.721Z,100782.28
2022-08-30T11:12:44.440Z,100779.72
2022-08-30T11:15:15.475Z,100782.03
2022-08-30T11:17:55.876Z,100781.00
2022-08-30T11:20:34.618Z,100770.78
2022-08-30T11:23:19.054Z,100784.53
2022-08-30T11:26:06.292Z,100772.22
2022-08-30T11:28:36.591Z,100777.28
2022-08-30T11:31:10.288Z,100779.94
2022-08-30T11:33:47.902Z,100776.69
2022-08-30T11:36:37.392Z,100776.31
2022-08-30T11:39:08.014Z,100764.69
2022-08-30T11:41:37.154Z,100766.13
2022-08-30T11:44:22.223Z,100768.19
2022-08-30T11:46:51.032Z,100772.69
2022-08-30T11:49:26.456Z,100765.00
2022-08-30T11:52:27.346Z,100753.56
2022-08-30T11:55:24.078Z,100754.94
2022-08-30T11:58:07.568Z,100753.75
2022-08-30T12:00:41.005Z,100753.63
2022-08-30T12:03:16.535Z,100759.81
2022-08-30T12:05:44.117Z,100749.41
2022-08-30T12:08:33.968Z,100754.84
2022-08-30T12:11:04.017Z,100750.00
2022-08-30T12:13:52.300Z,100755.44
2022-08-30T12:16:23.219Z,100739.34
2022-08-30T12:18:51.762Z,100753.03
2022-08-30T12:21:18.245Z,100736.59
2022-08-30T12:24:21.428Z,100733.72
2022-08-30T12:26:50.260Z,100745.59
2022-08-30T12:29:20.228Z,100734.66
2022-08-30T12:31:58.832Z,100744.13
2022-08-30T12:34:49.221Z,100731.19
2022-08-30T12:37:29.310Z,100736.44
2022-08-30T12:40:18.870Z,100728.69
2022-08-30T12:42:53.520Z,100723.38
2022-08-30T12:45:23.653Z,100723.09
2022-08-30T12:47:52.155Z,100724.72
2022-08-30T12:50:23.151Z,100711.09
2022-08-30T12:53:00.538Z,100721.13
2022-08-30T12:55:30.604Z,100717.56
2022-08-30T12:58:02.425Z,100714.50
2022-08-30T13:00:34.802Z,100710.34
2022-08-30T13:03:23.078Z,100712.88
2022-08-30T13:05:52.791Z,100711.25
2022-08-30T13:08:25.492Z,100704.81
2022-08-30T13:11:21.200Z,100701.81
2022-08-30T13:13:53.061Z,100696.78
2022-08-30T13:16:22.299Z,100692.84
2022-08-30T13:18:50.238Z,100684.47
2022-08-30T13:21:22.370Z,100680.09
2022-08-30T13:23:50.336Z,100682.63
2022-08-30T13:26:23.398Z,100673.97
2022-08-30T13:28:55.999Z,100673.41
2022-08-30T13:31:22.691Z,100668.16
2022-08-30T13:33:52.904Z,100669.25
2022-08-30T13:36:23.060Z,100668.97
2022-08-30T13:38:51.340Z,100673.72
2022-08-30T13:41:20.222Z,100678.16
2022-08-30T13:46:35.127Z,100662.06
2022-08-30T13:52:19.873Z,100657.59
2022-08-30T13:54:50.037Z,100650.06
2022-08-30T13:57:53.447Z,100656.44
2022-08-30T14:00:10.315Z,100652.22
2022-08-30T14:02:45.068Z,100652.47
2022-08-30T14:05:37.637Z,100642.00
2022-08-30T14:08:01.182Z,100645.38
2022-08-30T14:10:31.357Z,100641.47
2022-08-30T14:13:07.902Z,100649.22
2022-08-30T14:15:36.063Z,100638.16
2022-08-30T14:18:06.195Z,100637.88
2022-08-30T14:20:33.096Z,100628.69
2022-08-30T14:22:59.630Z,100630.91
2022-08-30T14:25:28.517Z,100625.88
2022-08-30T14:27:56.002Z,100629.47
2022-08-30T14:30:23.752Z,100619.78
2022-08-30T14:32:50.241Z,100619.78
2022-08-30T14:35:19.147Z,100614.84
2022-08-30T14:37:46.803Z,100605.63
2022-08-30T14:40:13.414Z,100608.63
2022-08-30T14:42:39.920Z,100614.22
2022-08-30T14:45:07.063Z,100608.75
2022-08-30T14:47:33.464Z,100603.66
2022-08-30T14:50:01.761Z,100598.75
2022-08-30T14:52:29.457Z,100601.69
2022-08-30T14:55:05.225Z,100599.41
2022-08-30T14:57:36.235Z,100598.47
2022-08-30T15:00:08.536Z,100594.22
2022-08-30T15:02:35.277Z,100588.69
2022-08-30T15:05:01.883Z,100585.91
2022-08-30T15:07:28.276Z,100584.75
2022-08-30T15:09:54.638Z,100577.81
2022-08-30T15:12:21.172Z,100578.13
2022-08-30T15:14:47.563Z,100582.47
2022-08-30T15:17:13.999Z,100565.28
2022-08-30T15:19:41.771Z,100573.53
2022-08-30T15:22:09.068Z,100572.47
2022-08-30T15:24:36.339Z,100577.38
2022-08-30T15:27:03.349Z,100571.03
2022-08-30T15:29:31.885Z,100571.88
2022-08-30T15:31:59.709Z,100570.34
2022-08-30T15:34:28.259Z,100563.91
2022-08-30T15:36:55.690Z,100575.94
2022-08-30T15:39:22.233Z,100565.34
2022-08-30T15:41:55.990Z,100561.41
2022-08-30T15:44:23.803Z,100551.13
2022-08-30T15:46:50.285Z,100561.44
2022-08-30T15:49:20.060Z,100549.28
2022-08-30T15:51:49.193Z,100556.66
2022-08-30T15:54:20.583Z,100550.69
2022-08-30T15:56:48.041Z,100559.28
2022-08-30T15:59:15.578Z,100557.41
2022-08-30T16:01:43.510Z,100557.25
2022-08-30T16:04:10.659Z,100558.41
2022-08-30T16:06:37.862Z,100557.88
2022-08-30T16:09:06.042Z,100560.16
2022-08-30T16:11:33.078Z,100557.34
2022-08-30T16:14:01.095Z,100557.19
2022-08-30T16:16:27.562Z,100555.41
2022-08-30T16:18:55.073Z,100550.84
2022-08-30T16:21:32.976Z,100545.78
2022-08-30T16:24:02.283Z,100558.41
2022-08-30T16:26:31.113Z,100560.44
2022-08-30T16:28:58.279Z,100552.97
2022-08-30T16:31:26.955Z,100556.34
2022-08-30T16:33:54.581Z,100550.34
2022-08-30T16:36:22.865Z,100542.81
2022-08-30T16:38:53.535Z,100546.13
2022-08-30T16:41:22.297Z,100548.28
2022-08-30T16:43:50.193Z,100536.09
2022-08-30T16:46:23.268Z,100534.06
2022-08-30T16:48:53.501Z,100538.94
2022-08-30T16:51:23.035Z,100541.72
2022-08-30T16:53:49.628Z,100535.31
2022-08-30T16:56:19.524Z,100533.06
2022-08-30T16:58:47.227Z,100545.78
2022-08-30T17:01:14.631Z,100551.31
2022-08-30T17:03:43.956Z,100545.81
2022-08-30T17:06:10.526Z,100551.50
2022-08-30T17:08:37.182Z,100551.84
2022-08-30T17:11:03.955Z,100545.84
2022-08-30T17:13:31.366Z,100545.34
2022-08-30T17:15:59.607Z,100549.56
2022-08-30T17:18:26.146Z,100552.91
2022-08-30T17:20:52.527Z,100554.16
2022-08-30T17:23:18.944Z,100548.22
2022-08-30T17:25:45.548Z,100551.25
2022-08-30T17:28:11.930Z,100551.44
2022-08-30T17:30:38.302Z,100559.31
2022-08-30T17:33:08.144Z,100556.06
2022-08-30T17:35:34.876Z,100560.13
2022-08-30T17:38:01.575Z,100560.63
2022-08-30T17:40:28.012Z,100567.38
2022-08-30T17:42:54.540Z,100566.13
2022-08-30T17:45:21.199Z,100567.34
2022-08-30T17:47:47.572Z,100574.78
2022-08-30T17:50:14.557Z,100574.94
2022-08-30T17:52:41.517Z,100578.59
2022-08-30T17:55:09.496Z,100576.81
2022-08-30T17:57:36.800Z,100583.56
2022-08-30T18:00:08.189Z,100583.22
2022-08-30T18:02:34.574Z,100583.31
2022-08-30T18:05:00.970Z,100585.84
2022-08-30T18:07:27.413Z,100591.28
2022-08-30T18:09:53.842Z,100586.38
2022-08-30T18:12:21.724Z,100604.97
2022-08-30T18:14:52.629Z,100608.22
2022-08-30T18:17:19.839Z,100608.44
2022-08-30T18:19:46.832Z,100605.13
2022-08-30T18:22:14.287Z,100602.94
2022-08-30T18:24:40.730Z,100601.66
2022-08-30T18:27:07.415Z,100600.81
2022-08-30T18:29:33.878Z,100598.78
2022-08-30T18:32:01.719Z,100597.22
2022-08-30T18:34:29.245Z,100605.34
2022-08-30T18:36:56.140Z,100613.34
2022-08-30T18:39:22.901Z,100612.88
2022-08-30T18:41:50.948Z,100599.59
2022-08-30T18:44:29.076Z,100607.00
2022-08-30T18:46:57.478Z,100609.28
2022-08-30T18:49:25.164Z,100618.56
2022-08-30T18:51:51.557Z,100621.31
2022-08-30T18:54:18.428Z,100613.47
2022-08-30T18:56:45.439Z,100617.28
2022-08-30T18:59:12.602Z,100609.13
2022-08-30T19:01:39.093Z,100605.44
2022-08-30T19:04:07.055Z,100614.03
2022-08-30T19:06:34.556Z,100614.75
2022-08-30T19:09:01.207Z,100611.00
2022-08-30T19:11:27.736Z,100625.38
2022-08-30T19:13:54.809Z,100622.03
2022-08-30T19:16:21.809Z,100625.94
2022-08-30T19:18:48.656Z,100618.81
2022-08-30T19:21:15.219Z,100632.31
2022-08-30T19:23:43.334Z,100624.91
2022-08-30T19:26:10.914Z,100632.63
2022-08-30T19:28:37.790Z,100635.44
2022-08-30T19:31:06.451Z,100628.34
2022-08-30T19:33:33.352Z,100631.72
2022-08-30T19:36:00.447Z,100634.38
2022-08-30T19:38:27.139Z,100640.56
2022-08-30T19:41:01.130Z,100639.78
2022-08-30T19:43:28.432Z,100641.56
2022-08-30T19:45:59.629Z,100633.97
2022-08-30T19:48:32.024Z,100642.28
2022-08-30T19:51:00.324Z,100643.13
2022-08-30T19:53:26.856Z,100643.72
2022-08-30T19:55:53.237Z,100644.84
2022-08-30T19:58:19.635Z,100642.22
2022-08-30T20:00:54.615Z,100640.91
2022-08-30T20:03:27.711Z,100647.22
2022-08-30T20:05:54.121Z,100650.66
2022-08-30T20:08:20.647Z,100650.13
2022-08-30T20:10:47.067Z,100647.97
2022-08-30T20:13:13.946Z,100657.28
2022-08-30T20:15:40.505Z,100657.69
2022-08-30T20:18:14.531Z,100663.88
2022-08-30T20:20:41.798Z,100667.50
2022-08-30T20:23:15.951Z,100670.06
2022-08-30T20:25:46.177Z,100667.53
2022-08-30T20:28:12.534Z,100669.72
2022-08-30T20:30:38.939Z,100672.69
2022-08-30T20:33:08.598Z,100678.34
2022-08-30T20:35:35.859Z,100665.28
2022-08-30T20:38:06.330Z,100669.72
2022-08-30T20:40:37.274Z,100672.28
2022-08-30T20:43:04.556Z,100672.56
2022-08-30T20:45:32.949Z,100676.97
2022-08-30T20:47:59.640Z,100667.72
2022-08-30T20:50:26.792Z,100667.34
2022-08-30T20:52:53.224Z,100667.13
2022-08-30T20:55:19.800Z,100671.53
2022-08-30T20:57:46.131Z,100675.19
2022-08-30T21:00:13.608Z,100676.00
2022-08-30T21:02:47.027Z,100669.28
2022-08-30T21:05:15.648Z,100667.78
2022-08-30T21:07:42.821Z,100667.16
2022-08-30T21:10:09.579Z,100677.59
2022-08-30T21:12:35.922Z,100678.19
2022-08-30T21:15:20.772Z,100683.91
2022-08-30T21:17:49.203Z,100685.38
2022-08-30T21:20:15.627Z,100684.56
2022-08-30T21:22:43.169Z,100686.03
2022-08-30T21:25:10.017Z,100676.59
2022-08-30T21:27:36.459Z,100680.13
2022-08-30T21:30:02.960Z,100680.38
2022-08-30T21:32:29.296Z,100683.09
2022-08-30T21:35:14.275Z,100682.97
2022-08-30T21:37:40.751Z,100688.25
2022-08-30T21:40:07.818Z,100678.97
2022-08-30T21:42:35.350Z,100675.22
2022-08-30T21:45:02.095Z,100680.25
2022-08-30T21:47:28.490Z,100688.88
2022-08-30T21:49:54.820Z,100685.53
2022-08-30T21:52:21.183Z,100685.09
2022-08-30T21:54:48.455Z,100693.31
2022-08-30T21:57:16.916Z,100702.41
2022-08-30T21:59:43.749Z,100699.44
2022-08-30T22:02:12.021Z,100705.34
2022-08-30T22:04:40.693Z,100706.63
2022-08-30T22:07:08.212Z,100705.97
2022-08-30T22:09:35.636Z,100707.66
2022-08-30T22:12:04.051Z,100705.34
2022-08-30T22:14:33.608Z,100706.84
2022-08-30T22:17:01.666Z,100714.84
2022-08-30T22:19:28.142Z,100712.72
2022-08-30T22:22:01.166Z,100712.53
2022-08-30T22:24:29.335Z,100715.06
2022-08-30T22:26:59.017Z,100698.00
2022-08-30T22:29:25.397Z,100708.13
2022-08-30T22:31:51.820Z,100715.69
2022-08-30T22:34:18.284Z,100717.38
2022-08-30T22:36:45.495Z,100712.31
2022-08-30T22:39:11.852Z,100717.97
2022-08-30T22:41:38.354Z,100711.03
2022-08-30T22:44:05.054Z,100722.81
2022-08-30T22:46:34.317Z,100720.91
2022-08-30T22:49:02.374Z,100716.75
2022-08-30T22:51:28.996Z,100720.31
2022-08-30T22:53:55.749Z,100722.63
2022-08-30T22:56:24.984Z,100726.84
2022-08-30T22:58:52.165Z,100732.69
2022-08-30T23:01:30.238Z,100724.88
2022-08-30T23:03:57.904Z,100727.81
2022-08-30T23:06:24.880Z,100730.53
2022-08-30T23:08:51.395Z,100726.56
2022-08-30T23:11:17.916Z,100730.34
2022-08-30T23:13:44.895Z,100721.69
2022-08-30T23:16:12.842Z,100719.38
2022-08-30T23:18:41.638Z,100722.75
2022-08-30T23:21:14.310Z,100727.53
2022-08-30T23:23:59.930Z,100738.06
2022-08-30T23:26:44.606Z,100721.47
2022-08-30T23:29:30.565Z,100719.56
2022-08-30T23:32:15.368Z,100733.41
2022-08-30T23:35:00.598Z,100725.59
2022-08-30T23:37:45.871Z,100731.94
2022-08-30T23:40:33.177Z,100725.22
2022-08-30T23:43:18.570Z,100732.75
2022-08-30T23:46:03.614Z,100732.34
2022-08-30T23:48:50.900Z,100727.03
2022-08-30T23:51:37.264Z,100735.22
2022-08-30T23:54:23.986Z,100732.94
2022-08-30T23:57:09.270Z,100733.75
2022-08-30T23:59:54.566Z,100737.34
